createdAt,value
2022-08-21T00:00:17.003Z,5.00
2022-08-21T00:03:08.108Z,4.63
2022-08-21T00:05:39.187Z,4.45
2022-08-21T00:08:06.216Z,3.80
2022-08-21T00:10:33.467Z,4.03
2022-08-21T00:13:01.783Z,3.78
2022-08-21T00:15:31.629Z,4.80
2022-08-21T00:17:59.885Z,4.38
2022-08-21T00:20:27.291Z,4.47
2022-08-21T00:22:54.222Z,4.70
2022-08-21T00:25:24.342Z,27.77
2022-08-21T00:27:53.629Z,9.38
2022-08-21T00:30:23.466Z,11.57
2022-08-21T00:32:52.031Z,6.13
2022-08-21T00:35:22.795Z,9.50
2022-08-21T00:37:49.712Z,23.48
2022-08-21T00:40:20.180Z,14.95
2022-08-21T00:42:50.092Z,31.60
2022-08-21T00:45:22.453Z,27.92
2022-08-21T00:47:50.826Z,20.55
2022-08-21T00:50:21.933Z,29.08
2022-08-21T00:52:52.089Z,25.80
2022-08-21T00:55:21.833Z,20.65
2022-08-21T00:57:53.045Z,12.43
2022-08-21T01:00:29.313Z,7.85
2022-08-21T01:03:01.064Z,6.05
2022-08-21T01:05:28.981Z,6.40
2022-08-21T01:07:58.037Z,5.57
2022-08-21T01:10:25.489Z,4.40
2022-08-21T01:12:56.128Z,5.47
2022-08-21T01:15:25.470Z,4.35
2022-08-21T01:17:52.306Z,4.75
2022-08-21T01:20:19.065Z,4.30
2022-08-21T01:22:46.036Z,4.03
2022-08-21T01:25:16.034Z,4.28
2022-08-21T01:27:43.478Z,4.13
2022-08-21T01:30:15.699Z,3.80
2022-08-21T01:32:42.949Z,4.10
2022-08-21T01:35:12.834Z,3.90
2022-08-21T01:37:40.309Z,4.03
2022-08-21T01:40:09.053Z,3.75
2022-08-21T01:42:36.364Z,4.45
2022-08-21T01:45:04.642Z,3.83
2022-08-21T01:47:31.510Z,3.50
2022-08-21T01:49:58.225Z,3.97
2022-08-21T01:52:25.000Z,3.67
2022-08-21T01:54:55.719Z,3.47
2022-08-21T01:57:26.366Z,4.15
2022-08-21T01:59:53.637Z,3.72
2022-08-21T02:02:20.379Z,3.92
2022-08-21T02:04:47.131Z,3.72
2022-08-21T02:07:13.945Z,3.67
2022-08-21T02:09:43.040Z,3.60
2022-08-21T02:12:12.097Z,3.72
2022-08-21T02:14:39.177Z,3.28
2022-08-21T02:17:09.270Z,3.83
2022-08-21T02:19:40.241Z,3.83
2022-08-21T02:22:11.202Z,3.50
2022-08-21T02:24:54.677Z,3.63
2022-08-21T02:27:27.233Z,4.07
2022-08-21T02:29:56.816Z,3.50
2022-08-21T02:32:23.558Z,4.00
2022-08-21T02:34:50.759Z,3.63
2022-08-21T02:37:18.073Z,3.63
2022-08-21T02:39:44.829Z,3.60
2022-08-21T02:42:11.677Z,3.70
2022-08-21T02:44:38.395Z,3.50
2022-08-21T02:47:05.372Z,3.00
2022-08-21T02:49:32.022Z,4.10
2022-08-21T02:51:58.728Z,3.05
2022-08-21T02:54:25.662Z,3.42
2022-08-21T02:56:52.429Z,3.25
2022-08-21T02:59:19.134Z,3.40
2022-08-21T03:01:45.903Z,3.05
2022-08-21T03:04:12.607Z,3.88
2022-08-21T03:06:39.390Z,2.95
2022-08-21T03:09:06.166Z,3.58
2022-08-21T03:11:34.291Z,2.97
2022-08-21T03:14:01.119Z,3.30
2022-08-21T03:16:30.924Z,2.97
2022-08-21T03:19:00.634Z,3.53
2022-08-21T03:21:27.359Z,3.38
2022-08-21T03:23:55.101Z,3.08
2022-08-21T03:26:22.293Z,2.70
2022-08-21T03:28:49.795Z,3.17
2022-08-21T03:31:16.906Z,3.83
2022-08-21T03:33:43.631Z,3.60
2022-08-21T03:36:11.332Z,2.95
2022-08-21T03:38:38.765Z,3.17
2022-08-21T03:41:06.451Z,3.25
2022-08-21T03:43:35.788Z,3.10
2022-08-21T03:46:04.454Z,3.30
2022-08-21T03:48:31.679Z,2.92
2022-08-21T03:50:58.657Z,3.03
2022-08-21T03:53:26.107Z,3.42
2022-08-21T03:55:53.673Z,3.20
2022-08-21T03:58:24.402Z,2.80
2022-08-21T04:00:53.789Z,3.13
2022-08-21T04:03:21.045Z,3.00
2022-08-21T04:05:47.804Z,3.10
2022-08-21T04:08:18.913Z,3.53
2022-08-21T04:10:54.845Z,3.30
2022-08-21T04:13:22.080Z,2.92
2022-08-21T04:15:49.314Z,3.47
2022-08-21T04:18:16.603Z,2.92
2022-08-21T04:20:50.131Z,3.60
2022-08-21T04:23:23.554Z,3.17
2022-08-21T04:25:53.151Z,3.60
2022-08-21T04:28:20.617Z,3.22
2022-08-21T04:30:47.923Z,3.40
2022-08-21T04:33:14.644Z,3.42
2022-08-21T04:35:42.971Z,3.08
2022-08-21T04:38:10.177Z,3.40
2022-08-21T04:40:37.501Z,4.03
2022-08-21T04:43:10.263Z,3.30
2022-08-21T04:45:43.006Z,3.90
2022-08-21T04:48:14.198Z,3.40
2022-08-21T04:50:50.611Z,3.88
2022-08-21T04:53:29.376Z,3.50
2022-08-21T04:55:58.655Z,3.42
2022-08-21T04:58:27.892Z,3.50
2022-08-21T05:00:58.807Z,3.53
2022-08-21T05:03:25.812Z,3.15
2022-08-21T05:05:52.830Z,3.38
2022-08-21T05:08:22.389Z,3.50
2022-08-21T05:10:49.147Z,3.42
2022-08-21T05:13:16.932Z,3.60
2022-08-21T05:15:43.617Z,3.08
2022-08-21T05:18:10.450Z,3.42
2022-08-21T05:20:38.295Z,3.50
2022-08-21T05:23:10.801Z,3.42
2022-08-21T05:25:37.627Z,3.38
2022-08-21T05:28:05.498Z,3.38
2022-08-21T05:30:33.902Z,3.55
2022-08-21T05:33:02.651Z,3.60
2022-08-21T05:35:30.072Z,3.70
2022-08-21T05:37:57.712Z,3.30
2022-08-21T05:40:24.791Z,3.60
2022-08-21T05:42:54.984Z,3.70
2022-08-21T05:45:34.655Z,3.70
2022-08-21T05:48:23.754Z,3.55
2022-08-21T05:50:52.724Z,3.33
2022-08-21T05:53:21.663Z,3.90
2022-08-21T05:55:48.808Z,3.38
2022-08-21T05:58:18.284Z,3.95
2022-08-21T06:00:48.114Z,3.78
2022-08-21T06:03:30.244Z,3.58
2022-08-21T06:05:57.384Z,3.30
2022-08-21T06:08:25.594Z,3.72
2022-08-21T06:10:53.974Z,3.72
2022-08-21T06:13:21.826Z,3.40
2022-08-21T06:15:48.854Z,3.92
2022-08-21T06:18:15.935Z,4.18
2022-08-21T06:20:42.835Z,3.55
2022-08-21T06:23:10.259Z,3.30
2022-08-21T06:25:37.088Z,3.38
2022-08-21T06:28:11.727Z,3.25
2022-08-21T06:30:40.094Z,3.78
2022-08-21T06:33:08.508Z,4.05
2022-08-21T06:35:36.110Z,3.22
2022-08-21T06:38:03.268Z,3.30
2022-08-21T06:40:31.049Z,3.70
2022-08-21T06:43:11.734Z,3.38
2022-08-21T06:45:42.576Z,3.53
2022-08-21T06:48:09.878Z,3.45
2022-08-21T06:50:37.325Z,3.17
2022-08-21T06:53:07.877Z,4.13
2022-08-21T06:55:34.805Z,3.88
2022-08-21T06:58:01.778Z,3.20
2022-08-21T07:00:28.953Z,3.85
2022-08-21T07:02:55.827Z,3.67
2022-08-21T07:05:22.741Z,4.00
2022-08-21T07:07:49.385Z,3.50
2022-08-21T07:10:22.189Z,3.47
2022-08-21T07:12:59.116Z,4.07
2022-08-21T07:15:28.716Z,3.60
2022-08-21T07:17:58.038Z,3.70
2022-08-21T07:20:24.807Z,4.57
2022-08-21T07:22:51.908Z,4.20
2022-08-21T07:25:18.839Z,4.05
2022-08-21T07:27:45.491Z,3.72
2022-08-21T07:30:12.361Z,3.80
2022-08-21T07:32:39.103Z,4.03
2022-08-21T07:35:06.077Z,3.80
2022-08-21T07:37:32.748Z,3.80
2022-08-21T07:39:59.476Z,4.10
2022-08-21T07:42:26.157Z,3.88
2022-08-21T07:44:56.369Z,3.85
2022-08-21T07:47:40.501Z,3.67
2022-08-21T07:50:12.190Z,3.83
2022-08-21T07:52:40.182Z,4.43
2022-08-21T07:55:08.746Z,3.90
2022-08-21T07:57:35.482Z,4.10
2022-08-21T08:00:04.339Z,3.88
2022-08-21T08:02:40.197Z,4.38
2022-08-21T08:05:12.002Z,4.15
2022-08-21T08:07:39.545Z,4.13
2022-08-21T08:10:07.951Z,4.75
2022-08-21T08:12:40.447Z,5.32
2022-08-21T08:15:13.092Z,4.45
2022-08-21T08:17:39.795Z,4.30
2022-08-21T08:20:09.021Z,4.50
2022-08-21T08:22:38.559Z,4.30
2022-08-21T08:25:09.405Z,4.10
2022-08-21T08:27:38.736Z,4.82
2022-08-21T08:30:07.098Z,3.63
2022-08-21T08:32:34.329Z,4.57
2022-08-21T08:35:01.134Z,4.00
2022-08-21T08:37:29.480Z,4.25
2022-08-21T08:40:04.602Z,4.20
2022-08-21T08:42:35.431Z,4.18
2022-08-21T08:45:16.868Z,4.75
2022-08-21T08:47:48.664Z,4.45
2022-08-21T08:50:28.890Z,4.32
2022-08-21T08:53:04.315Z,4.68
2022-08-21T08:55:40.275Z,4.88
2022-08-21T08:58:08.009Z,4.45
2022-08-21T09:00:34.909Z,4.97
2022-08-21T09:03:03.849Z,4.82
2022-08-21T09:05:39.263Z,5.90
2022-08-21T09:08:19.062Z,5.15
2022-08-21T09:11:04.033Z,4.90
2022-08-21T09:14:09.188Z,5.00
2022-08-21T09:16:51.168Z,5.30
2022-08-21T09:19:34.138Z,5.18
2022-08-21T09:22:29.482Z,5.00
2022-08-21T09:25:11.914Z,4.28
2022-08-21T09:27:39.241Z,4.55
2022-08-21T09:30:08.983Z,4.38
2022-08-21T09:32:38.643Z,4.88
2022-08-21T09:35:10.748Z,21.75
2022-08-21T09:38:03.873Z,35.45
2022-08-21T09:40:36.694Z,34.15
2022-08-21T09:43:05.716Z,12.63
2022-08-21T09:45:33.834Z,6.50
2022-08-21T09:48:22.348Z,6.60
2022-08-21T09:50:54.751Z,4.90
2022-08-21T09:53:33.725Z,6.63
2022-08-21T09:56:35.607Z,3.90
2022-08-21T09:59:02.333Z,4.20
2022-08-21T10:01:29.232Z,4.43
2022-08-21T10:04:09.009Z,13.40
2022-08-21T10:06:36.561Z,7.25
2022-08-21T10:09:15.098Z,8.80
2022-08-21T10:11:57.557Z,5.03
2022-08-21T10:14:42.109Z,6.30
2022-08-21T10:17:22.022Z,4.68
2022-08-21T10:20:12.950Z,3.63
2022-08-21T10:23:06.969Z,7.25
2022-08-21T10:25:33.583Z,13.55
2022-08-21T10:28:13.923Z,5.72
2022-08-21T10:31:16.778Z,4.45
2022-08-21T10:33:52.069Z,3.60
2022-08-21T10:36:37.891Z,3.03
2022-08-21T10:39:34.997Z,3.25
2022-08-21T10:42:28.439Z,4.20
2022-08-21T10:45:14.363Z,5.00
2022-08-21T10:47:57.323Z,7.28
2022-08-21T10:50:35.003Z,5.90
2022-08-21T10:53:27.315Z,4.85
2022-08-21T10:55:53.934Z,3.95
2022-08-21T10:58:29.330Z,4.22
2022-08-21T11:01:14.065Z,3.28
2022-08-21T11:03:45.453Z,3.00
2022-08-21T11:06:17.573Z,2.72
2022-08-21T11:08:47.935Z,4.72
2022-08-21T11:11:28.120Z,8.20
2022-08-21T11:14:32.629Z,3.88
2022-08-21T11:17:08.179Z,4.47
2022-08-21T11:19:48.291Z,4.68
2022-08-21T11:22:38.953Z,4.53
2022-08-21T11:25:19.687Z,4.30
2022-08-21T11:27:52.761Z,3.63
2022-08-21T11:30:19.696Z,3.25
2022-08-21T11:33:06.485Z,9.90
2022-08-21T11:35:48.237Z,8.70
2022-08-21T11:38:28.818Z,13.05
2022-08-21T11:41:09.794Z,4.43
2022-08-21T11:43:44.996Z,3.72
2022-08-21T11:46:26.788Z,4.18
2022-08-21T11:49:02.627Z,5.85
2022-08-21T11:51:40.098Z,2.90
2022-08-21T11:54:47.023Z,3.28
2022-08-21T11:57:51.799Z,4.38
2022-08-21T12:00:34.159Z,4.32
2022-08-21T12:03:14.649Z,3.67
2022-08-21T12:05:45.158Z,4.60
2022-08-21T12:08:27.651Z,4.50
2022-08-21T12:11:17.970Z,8.48
2022-08-21T12:13:58.637Z,8.07
2022-08-21T12:16:43.400Z,3.70
2022-08-21T12:19:14.430Z,4.70
2022-08-21T12:21:52.825Z,3.17
2022-08-21T12:24:34.182Z,3.35
2022-08-21T12:27:45.201Z,2.78
2022-08-21T12:30:36.527Z,2.53
2022-08-21T12:33:20.862Z,2.95
2022-08-21T12:35:50.531Z,5.03
2022-08-21T12:38:27.383Z,8.10
2022-08-21T12:41:21.098Z,9.70
2022-08-21T12:43:52.542Z,5.57
2022-08-21T12:46:23.032Z,5.25
2022-08-21T12:48:55.702Z,3.35
2022-08-21T12:51:35.298Z,3.72
2022-08-21T12:54:02.144Z,3.80
2022-08-21T12:56:32.339Z,2.92
2022-08-21T12:59:07.606Z,3.80
2022-08-21T13:01:56.041Z,4.95
2022-08-21T13:04:33.207Z,4.30
2022-08-21T13:07:01.115Z,4.78
2022-08-21T13:09:30.501Z,3.08
2022-08-21T13:11:58.506Z,3.47
2022-08-21T13:14:45.945Z,3.05
2022-08-21T13:17:25.760Z,3.33
2022-08-21T13:20:02.094Z,2.72
2022-08-21T13:22:35.005Z,2.90
2022-08-21T13:25:07.059Z,2.75
2022-08-21T13:27:35.234Z,3.05
2022-08-21T13:30:21.121Z,2.92
2022-08-21T13:32:52.021Z,2.78
2022-08-21T13:35:23.282Z,2.90
2022-08-21T13:37:52.829Z,2.75
2022-08-21T13:40:40.943Z,3.03
2022-08-21T13:43:14.296Z,3.00
2022-08-21T13:45:49.888Z,2.78
2022-08-21T13:48:17.042Z,3.20
2022-08-21T13:50:44.694Z,2.60
2022-08-21T13:53:45.666Z,2.97
2022-08-21T13:56:27.926Z,3.00
2022-08-21T13:58:56.871Z,2.55
2022-08-21T14:01:28.780Z,3.70
2022-08-21T14:04:19.004Z,2.85
2022-08-21T14:06:46.626Z,2.53
2022-08-21T14:09:43.772Z,2.67
2022-08-21T14:12:24.639Z,2.97
2022-08-21T14:14:52.627Z,2.70
2022-08-21T14:17:34.884Z,2.53
2022-08-21T14:20:04.117Z,3.10
2022-08-21T14:22:44.518Z,2.85
2022-08-21T14:25:20.214Z,3.03
2022-08-21T14:27:53.695Z,5.97
2022-08-21T14:30:30.870Z,10.35
2022-08-21T14:32:58.291Z,15.63
2022-08-21T14:35:25.329Z,12.00
2022-08-21T14:37:53.908Z,8.45
2022-08-21T14:40:23.438Z,12.18
2022-08-21T14:42:50.811Z,43.85
2022-08-21T14:45:24.918Z,32.65
2022-08-21T14:47:55.903Z,28.10
2022-08-21T14:50:22.869Z,28.27
2022-08-21T14:52:50.425Z,39.72
2022-08-21T14:55:19.039Z,7.07
2022-08-21T14:57:48.241Z,8.07
2022-08-21T15:00:18.561Z,16.38
2022-08-21T15:02:45.631Z,15.20
2022-08-21T15:05:15.425Z,16.52
2022-08-21T15:07:51.890Z,7.53
2022-08-21T15:10:18.690Z,12.68
2022-08-21T15:12:45.450Z,7.05
2022-08-21T15:15:12.521Z,6.60
2022-08-21T15:17:48.187Z,4.45
2022-08-21T15:20:15.917Z,4.13
2022-08-21T15:22:47.729Z,11.15
2022-08-21T15:25:15.004Z,10.55
2022-08-21T15:27:41.731Z,7.90
2022-08-21T15:30:08.856Z,10.15
2022-08-21T15:32:35.480Z,11.80
2022-08-21T15:35:03.175Z,5.53
2022-08-21T15:37:30.486Z,6.78
2022-08-21T15:39:57.422Z,5.25
2022-08-21T15:42:27.556Z,6.68
2022-08-21T15:44:55.617Z,8.02
2022-08-21T15:47:26.145Z,4.60
2022-08-21T15:49:52.790Z,5.85
2022-08-21T15:52:21.724Z,3.63
2022-08-21T15:54:49.110Z,6.35
2022-08-21T15:57:19.808Z,5.38
2022-08-21T15:59:50.127Z,5.63
2022-08-21T16:02:29.978Z,10.60
2022-08-21T16:04:57.993Z,9.48
2022-08-21T16:07:24.901Z,10.90
2022-08-21T16:09:51.645Z,26.67
2022-08-21T16:12:24.426Z,43.33
2022-08-21T16:14:53.231Z,43.60
2022-08-21T16:17:21.853Z,35.97
2022-08-21T16:19:48.605Z,45.08
2022-08-21T16:22:15.237Z,13.45
2022-08-21T16:24:41.934Z,4.10
2022-08-21T16:27:09.184Z,9.75
2022-08-21T16:29:37.715Z,3.70
2022-08-21T16:32:07.921Z,13.80
2022-08-21T16:34:35.697Z,3.40
2022-08-21T16:37:02.498Z,4.35
2022-08-21T16:39:29.370Z,3.35
2022-08-21T16:41:56.209Z,3.80
2022-08-21T16:44:23.142Z,3.10
2022-08-21T16:46:50.197Z,3.55
2022-08-21T16:49:17.215Z,3.15
2022-08-21T16:51:43.993Z,3.25
2022-08-21T16:54:12.016Z,3.80
2022-08-21T16:56:42.054Z,2.97
2022-08-21T16:59:12.604Z,4.00
2022-08-21T17:01:39.746Z,4.18
2022-08-21T17:04:06.612Z,3.88
2022-08-21T17:06:33.620Z,2.88
2022-08-21T17:09:04.181Z,2.83
2022-08-21T17:11:38.495Z,3.90
2022-08-21T17:14:09.308Z,4.20
2022-08-21T17:16:37.412Z,3.85
2022-08-21T17:19:04.697Z,3.00
2022-08-21T17:21:31.611Z,2.85
2022-08-21T17:23:58.547Z,2.60
2022-08-21T17:26:25.976Z,2.78
2022-08-21T17:28:54.857Z,2.88
2022-08-21T17:31:22.125Z,2.83
2022-08-21T17:33:52.854Z,2.97
2022-08-21T17:36:22.297Z,2.95
2022-08-21T17:38:49.508Z,2.30
2022-08-21T17:41:17.400Z,3.00
2022-08-21T17:43:44.329Z,2.78
2022-08-21T17:46:17.102Z,2.78
2022-08-21T17:48:47.271Z,2.60
2022-08-21T17:51:15.085Z,3.53
2022-08-21T17:53:42.001Z,2.80
2022-08-21T17:56:08.915Z,2.75
2022-08-21T17:58:37.005Z,2.70
2022-08-21T18:01:05.690Z,2.80
2022-08-21T18:03:38.499Z,2.92
2022-08-21T18:06:06.473Z,2.55
2022-08-21T18:08:34.061Z,2.80
2022-08-21T18:11:01.253Z,3.30
2022-08-21T18:13:32.987Z,2.55
2022-08-21T18:16:00.279Z,2.85
2022-08-21T18:18:32.601Z,3.05
2022-08-21T18:20:59.326Z,2.88
2022-08-21T18:23:43.442Z,2.80
2022-08-21T18:26:11.048Z,2.90
2022-08-21T18:28:38.494Z,2.55
2022-08-21T18:31:09.480Z,2.85
2022-08-21T18:33:37.821Z,2.85
2022-08-21T18:36:05.230Z,2.97
2022-08-21T18:38:31.894Z,3.67
2022-08-21T18:40:59.668Z,4.40
2022-08-21T18:43:26.944Z,3.40
2022-08-21T18:45:54.168Z,3.15
2022-08-21T18:48:21.052Z,3.28
2022-08-21T18:50:53.860Z,3.45
2022-08-21T18:53:27.434Z,3.30
2022-08-21T18:55:57.054Z,3.08
2022-08-21T18:58:31.629Z,3.15
2022-08-21T19:01:00.157Z,4.10
2022-08-21T19:03:27.068Z,3.40
2022-08-21T19:05:54.137Z,3.90
2022-08-21T19:08:22.979Z,3.70
2022-08-21T19:10:52.572Z,3.78
2022-08-21T19:13:21.286Z,3.85
2022-08-21T19:15:52.650Z,3.33
2022-08-21T19:18:28.322Z,3.47
2022-08-21T19:21:08.269Z,4.45
2022-08-21T19:23:35.546Z,3.40
2022-08-21T19:26:06.016Z,3.67
2022-08-21T19:28:38.621Z,3.55
2022-08-21T19:31:19.748Z,16.13
2022-08-21T19:33:58.970Z,31.17
2022-08-21T19:36:29.970Z,20.02
2022-08-21T19:38:56.869Z,8.70
2022-08-21T19:41:27.339Z,7.18
2022-08-21T19:43:57.844Z,4.65
2022-08-21T19:46:28.903Z,7.13
2022-08-21T19:48:57.080Z,14.02
2022-08-21T19:51:24.424Z,8.75
2022-08-21T19:53:55.822Z,18.42
2022-08-21T19:56:27.017Z,17.33
2022-08-21T19:58:55.698Z,8.13
2022-08-21T20:01:25.612Z,6.60
2022-08-21T20:03:54.159Z,7.50
2022-08-21T20:06:41.108Z,5.38
2022-08-21T20:09:10.406Z,5.38
2022-08-21T20:11:47.656Z,8.95
2022-08-21T20:14:17.576Z,18.67
2022-08-21T20:16:46.214Z,35.92
2022-08-21T20:19:13.164Z,25.55
2022-08-21T20:21:43.826Z,24.65
2022-08-21T20:24:14.654Z,13.13
2022-08-21T20:27:01.788Z,15.40
2022-08-21T20:29:34.934Z,6.78
2022-08-21T20:32:05.682Z,11.30
2022-08-21T20:34:33.180Z,10.05
2022-08-21T20:37:01.166Z,7.28
2022-08-21T20:39:28.272Z,6.93
2022-08-21T20:41:55.538Z,8.80
2022-08-21T20:44:22.561Z,7.05
2022-08-21T20:46:54.493Z,5.40
2022-08-21T20:49:27.793Z,4.60
2022-08-21T20:51:57.188Z,5.47
2022-08-21T20:54:41.994Z,4.80
2022-08-21T20:57:13.595Z,4.32
2022-08-21T21:00:01.790Z,4.22
2022-08-21T21:02:43.443Z,5.10
2022-08-21T21:05:33.155Z,4.68
2022-08-21T21:08:03.249Z,4.45
2022-08-21T21:10:41.380Z,4.88
2022-08-21T21:13:38.571Z,4.43
2022-08-21T21:16:15.827Z,4.30
2022-08-21T21:24:51.200Z,4.53
2022-08-21T21:27:29.526Z,5.45
2022-08-21T21:30:14.729Z,5.25
2022-08-21T21:32:42.781Z,5.40
2022-08-21T21:35:14.461Z,5.32
2022-08-21T21:37:58.604Z,3.88
2022-08-21T21:40:32.993Z,3.85
2022-08-21T21:43:00.475Z,4.30
2022-08-21T21:45:56.592Z,3.20
2022-08-21T21:48:37.675Z,4.00
2022-08-21T21:51:18.727Z,3.50
2022-08-21T21:53:58.521Z,3.90
2022-08-21T21:57:06.611Z,3.58
2022-08-21T21:59:40.237Z,3.58
2022-08-21T22:02:16.705Z,3.47
2022-08-21T22:05:04.444Z,3.45
2022-08-21T22:07:45.554Z,3.38
2022-08-21T22:10:19.743Z,2.90
2022-08-21T22:13:11.026Z,3.55
2022-08-21T22:15:38.209Z,3.13
2022-08-21T22:18:16.790Z,2.92
2022-08-21T22:20:52.913Z,4.15
2022-08-21T22:23:30.099Z,3.17
2022-08-21T22:26:04.485Z,2.70
2022-08-21T22:28:35.418Z,3.05
2022-08-21T22:31:22.382Z,3.00
2022-08-21T22:34:06.327Z,15.20
2022-08-21T22:36:37.164Z,30.50
2022-08-21T22:39:11.860Z,34.15
2022-08-21T22:41:43.476Z,11.13
2022-08-21T22:44:23.708Z,8.88
2022-08-21T22:47:00.893Z,8.18
2022-08-21T22:49:41.946Z,11.85
2022-08-21T22:52:24.424Z,25.85
2022-08-21T22:54:54.233Z,24.83
2022-08-21T22:57:32.164Z,18.48
2022-08-21T23:00:01.543Z,22.92
2022-08-21T23:02:38.931Z,17.80
2022-08-21T23:05:31.300Z,13.77
2022-08-21T23:08:34.270Z,9.60
2022-08-21T23:11:15.957Z,4.82
2022-08-21T23:13:46.289Z,5.25
2022-08-21T23:16:37.758Z,5.57
2022-08-21T23:19:34.450Z,4.28
2022-08-21T23:22:09.480Z,4.30
2022-08-21T23:24:49.826Z,3.78
2022-08-21T23:27:35.777Z,3.95
2022-08-21T23:30:12.297Z,3.78
2022-08-21T23:33:01.289Z,3.45
2022-08-21T23:36:04.109Z,3.70
2022-08-21T23:38:45.441Z,3.33
2022-08-21T23:41:56.802Z,2.97
2022-08-21T23:44:51.900Z,2.78
2022-08-21T23:47:27.287Z,3.00
2022-08-21T23:50:14.249Z,3.05
2022-08-21T23:53:09.031Z,3.20
2022-08-21T23:55:43.696Z,2.47
2022-08-21T23:58:30.862Z,2.88
